Time;durP1;ratioP1;P1;durP2;ratioP2;P2;SDS_P1;SDS_P2;PMS_P1;PMS_P2;Temp;Humidity;BMP_temperature;BMP_pressure;BME280_temperature;BME280_humidity;BME280_pressure;Samples;Min_cycle;Max_cycle;Signal;HPM_P1;HPM_P2
2021/09/22 00:00:19;;;;;;;18.43;14.17;;;10.70;99.90;;;;;;5036081;28;20173;-63
2021/09/22 00:02:45;;;;;;;15.50;13.30;;;10.70;99.90;;;;;;5035598;28;20176;-63
2021/09/22 00:05:12;;;;;;;15.93;13.50;;;10.70;99.90;;;;;;5041530;28;20197;-64
2021/09/22 00:07:37;;;;;;;15.13;13.07;;;10.70;99.90;;;;;;5055051;28;20203;-63
2021/09/22 00:10:09;;;;;;;15.73;14.33;;;10.70;99.90;;;;;;5050449;28;20179;-63
2021/09/22 00:12:35;;;;;;;17.43;13.97;;;10.80;99.90;;;;;;5034594;28;20171;-64
2021/09/22 00:15:04;;;;;;;19.20;14.57;;;10.80;99.90;;;;;;5038505;28;20171;-63
2021/09/22 00:17:30;;;;;;;17.50;15.60;;;10.70;99.90;;;;;;5054914;28;20198;-63
2021/09/22 00:19:56;;;;;;;17.60;15.80;;;10.70;99.90;;;;;;5052648;28;20537;-63
2021/09/22 00:22:23;;;;;;;17.63;15.03;;;10.60;99.90;;;;;;5035146;28;20199;-63
2021/09/22 00:24:49;;;;;;;20.20;15.77;;;10.70;99.90;;;;;;5045311;28;20182;-63
2021/09/22 00:27:15;;;;;;;16.80;15.07;;;10.60;99.90;;;;;;5054709;28;20573;-63
2021/09/22 00:29:40;;;;;;;15.97;14.47;;;10.50;99.90;;;;;;5045674;28;20239;-63
2021/09/22 00:32:06;;;;;;;15.70;14.20;;;10.50;99.90;;;;;;5035005;28;20198;-63
2021/09/22 00:34:32;;;;;;;15.27;13.77;;;10.40;99.90;;;;;;5051408;28;20179;-63
2021/09/22 00:36:57;;;;;;;16.07;14.47;;;10.30;99.90;;;;;;5054707;28;20260;-63
2021/09/22 00:39:23;;;;;;;17.37;15.53;;;10.20;99.90;;;;;;5039434;28;20199;-63
2021/09/22 00:41:48;;;;;;;17.03;15.23;;;10.20;99.90;;;;;;5034589;28;20517;-63
2021/09/22 00:44:14;;;;;;;17.87;15.90;;;10.10;99.90;;;;;;5046407;28;20229;-64
2021/09/22 00:46:40;;;;;;;18.87;16.30;;;10.10;99.90;;;;;;5055237;28;20205;-64
2021/09/22 00:49:05;;;;;;;22.03;17.23;;;10.10;99.90;;;;;;5043375;28;20195;-64
2021/09/22 00:51:31;;;;;;;18.90;17.00;;;10.00;99.90;;;;;;5034732;28;20167;-64
2021/09/22 00:53:57;;;;;;;19.47;16.73;;;10.00;99.90;;;;;;5043797;28;20258;-64
2021/09/22 00:56:23;;;;;;;21.80;16.83;;;10.00;99.90;;;;;;5054929;28;20210;-63
2021/09/22 00:58:49;;;;;;;19.37;17.33;;;9.90;99.90;;;;;;5052995;28;20218;-63
2021/09/22 01:01:15;;;;;;;19.03;17.03;;;9.90;99.90;;;;;;5054447;28;20167;-64
2021/09/22 01:03:40;;;;;;;20.03;17.93;;;9.90;99.90;;;;;;5048647;28;20194;-63
2021/09/22 01:06:06;;;;;;;19.13;17.33;;;9.80;99.90;;;;;;5034469;28;20623;-63
2021/09/22 01:08:32;;;;;;;18.70;16.73;;;9.90;99.90;;;;;;5037880;28;20202;-63
2021/09/22 01:10:59;;;;;;;21.70;16.93;;;9.90;99.90;;;;;;5052796;28;20194;-64
2021/09/22 01:13:25;;;;;;;20.77;17.83;;;9.80;99.90;;;;;;5052198;28;20177;-64
2021/09/22 01:15:51;;;;;;;20.97;17.77;;;9.80;99.90;;;;;;5034433;28;20652;-63
2021/09/22 01:18:20;;;;;;;24.10;18.87;;;9.70;99.90;;;;;;5035462;28;20225;-63
2021/09/22 01:20:53;;;;;;;29.73;19.03;;;9.70;99.90;;;;;;5054657;28;20705;-63
2021/09/22 01:23:19;;;;;;;21.43;19.17;;;9.80;99.90;;;;;;5054225;28;20175;-63
2021/09/22 01:25:47;;;;;;;22.43;19.20;;;9.80;99.90;;;;;;5034116;28;20195;-63
2021/09/22 01:28:15;;;;;;;26.00;19.73;;;9.70;99.90;;;;;;5049023;28;20555;-63
2021/09/22 01:30:41;;;;;;;20.77;18.67;;;9.70;99.90;;;;;;5053572;28;20537;-63
2021/09/22 01:33:09;;;;;;;24.53;18.67;;;9.70;99.90;;;;;;5039737;28;20180;-63
2021/09/22 01:35:38;;;;;;;23.70;18.93;;;9.70;99.90;;;;;;5033641;28;20229;-63
2021/09/22 01:38:06;;;;;;;29.00;18.17;;;9.70;99.90;;;;;;5045168;28;20694;-63
2021/09/22 01:40:32;;;;;;;21.73;19.53;;;9.70;99.90;;;;;;5053305;28;20163;-63
2021/09/22 01:42:58;;;;;;;25.37;20.80;;;9.70;99.90;;;;;;5052027;28;20182;-63
2021/09/22 01:45:24;;;;;;;22.77;20.40;;;9.60;99.90;;;;;;5053538;28;20587;-63
2021/09/22 01:47:49;;;;;;;21.87;19.17;;;9.60;99.90;;;;;;5043665;28;20211;-63
2021/09/22 01:50:18;;;;;;;22.07;19.27;;;9.60;99.90;;;;;;5033351;28;20230;-63
2021/09/22 01:52:46;;;;;;;32.53;20.53;;;9.60;99.90;;;;;;5034670;28;20267;-63
2021/09/22 01:55:13;;;;;;;23.87;19.20;;;9.60;99.90;;;;;;5033626;28;20175;-63
2021/09/22 01:57:39;;;;;;;24.47;20.07;;;9.60;99.90;;;;;;5039644;28;20201;-63
2021/09/22 02:00:06;;;;;;;25.40;19.70;;;9.60;99.90;;;;;;5052908;28;20253;-63
2021/09/22 02:02:32;;;;;;;22.50;19.60;;;9.60;99.90;;;;;;5048042;28;20182;-63
2021/09/22 02:04:59;;;;;;;26.20;19.50;;;9.60;99.90;;;;;;5033164;28;20179;-63
2021/09/22 02:07:24;;;;;;;21.43;19.33;;;9.60;99.90;;;;;;5036128;28;20671;-63
2021/09/22 02:09:50;;;;;;;22.17;18.50;;;9.60;99.90;;;;;;5034992;28;20184;-63
2021/09/22 02:12:16;;;;;;;24.20;19.97;;;9.60;99.90;;;;;;5034231;28;20226;-63
2021/09/22 02:14:41;;;;;;;22.60;19.30;;;9.50;99.90;;;;;;5033994;28;20183;-66
2021/09/22 02:17:07;;;;;;;24.33;19.27;;;9.50;99.90;;;;;;5034421;28;20175;-66
2021/09/22 02:19:33;;;;;;;22.17;19.37;;;9.50;99.90;;;;;;5053036;28;20289;-68
2021/09/22 02:21:59;;;;;;;23.47;18.57;;;9.50;99.90;;;;;;5037840;28;20279;-68
2021/09/22 02:24:25;;;;;;;21.87;18.40;;;9.40;99.90;;;;;;5042772;28;20214;-70
2021/09/22 02:26:52;;;;;;;20.37;18.20;;;9.40;99.90;;;;;;5053894;28;20214;-67
2021/09/22 02:29:19;;;;;;;22.70;19.90;;;9.40;99.90;;;;;;5046224;28;20280;-69
2021/09/22 02:31:48;;;;;;;27.50;19.50;;;9.40;99.90;;;;;;5033945;28;20213;-67
2021/09/22 02:34:14;;;;;;;21.53;19.10;;;9.30;99.90;;;;;;5038292;28;20588;-64
2021/09/22 02:36:40;;;;;;;20.67;18.47;;;9.30;99.90;;;;;;5052668;28;20209;-66
2021/09/22 02:39:06;;;;;;;21.87;19.67;;;9.30;99.90;;;;;;5035097;28;20207;-67
2021/09/22 02:41:32;;;;;;;24.63;19.80;;;9.30;99.90;;;;;;5032315;28;20267;-68
2021/09/22 02:44:00;;;;;;;22.03;18.90;;;9.30;99.90;;;;;;5049514;28;20190;-64
2021/09/22 02:46:26;;;;;;;23.63;18.17;;;9.20;99.90;;;;;;5052672;28;20544;-67
2021/09/22 02:48:52;;;;;;;24.10;19.40;;;9.20;99.90;;;;;;5037706;28;20231;-66
2021/09/22 02:51:18;;;;;;;23.53;18.43;;;9.20;99.90;;;;;;5035241;28;20198;-65
2021/09/22 02:53:43;;;;;;;24.23;19.57;;;9.20;99.90;;;;;;5052082;28;20672;-69
2021/09/22 02:56:09;;;;;;;23.47;19.90;;;9.10;99.90;;;;;;5052826;28;20213;-68
2021/09/22 02:58:35;;;;;;;23.17;19.67;;;9.00;99.90;;;;;;5033254;28;20198;-68
2021/09/22 03:01:00;;;;;;;25.33;19.70;;;9.00;99.90;;;;;;5032997;28;20167;-67
2021/09/22 03:03:27;;;;;;;24.97;20.73;;;9.00;99.90;;;;;;5050392;28;20194;-65
2021/09/22 03:05:53;;;;;;;22.40;19.73;;;9.00;99.90;;;;;;5053128;28;20675;-68
2021/09/22 03:08:19;;;;;;;27.47;21.33;;;9.00;99.90;;;;;;5035791;28;20273;-66
2021/09/22 03:10:44;;;;;;;24.03;20.07;;;9.10;99.90;;;;;;5032752;28;20171;-65
2021/09/22 03:13:10;;;;;;;23.40;19.17;;;9.10;99.90;;;;;;5048312;28;20186;-67
2021/09/22 03:15:36;;;;;;;24.07;20.60;;;9.10;99.90;;;;;;5052990;28;20181;-66
2021/09/22 03:18:01;;;;;;;26.80;22.07;;;9.00;99.90;;;;;;5037571;28;20211;-66
2021/09/22 03:20:27;;;;;;;24.77;20.70;;;9.00;99.90;;;;;;5043322;28;20182;-66
2021/09/22 03:22:53;;;;;;;27.63;20.60;;;8.90;99.90;;;;;;5052632;28;20220;-67
2021/09/22 03:25:18;;;;;;;25.37;21.33;;;8.90;99.90;;;;;;5043650;28;20624;-65
2021/09/22 03:27:44;;;;;;;22.30;19.33;;;8.80;99.90;;;;;;5032621;28;20203;-68
2021/09/22 03:30:11;;;;;;;25.37;18.60;;;8.80;99.90;;;;;;5033057;28;20263;-68
2021/09/22 03:32:36;;;;;;;26.23;18.90;;;8.80;99.90;;;;;;5032723;28;20168;-69
2021/09/22 03:35:03;;;;;;;24.20;19.47;;;8.70;99.90;;;;;;5031870;28;20187;-67
2021/09/22 03:37:29;;;;;;;29.50;19.13;;;8.70;99.90;;;;;;5031682;28;20186;-68
2021/09/22 03:39:54;;;;;;;27.10;19.43;;;8.70;99.90;;;;;;5036506;28;20175;-67
2021/09/22 03:42:20;;;;;;;23.43;18.83;;;8.70;99.90;;;;;;5052592;28;20678;-67
2021/09/22 03:44:45;;;;;;;25.77;20.53;;;8.60;99.90;;;;;;5049945;28;20667;-67
2021/09/22 03:47:11;;;;;;;22.63;19.70;;;8.60;99.90;;;;;;5032333;28;20204;-64
2021/09/22 03:49:37;;;;;;;20.77;18.57;;;8.60;99.90;;;;;;5050624;28;20198;-62
2021/09/22 03:52:03;;;;;;;24.40;20.87;;;8.60;99.90;;;;;;5051340;28;20221;-62
2021/09/22 03:54:29;;;;;;;26.03;21.57;;;8.50;99.90;;;;;;5032904;28;20179;-62
2021/09/22 03:56:54;;;;;;;29.93;21.80;;;8.50;99.90;;;;;;5031318;28;20184;-62
2021/09/22 03:59:20;;;;;;;23.13;19.77;;;8.50;99.90;;;;;;5047379;28;20225;-62
2021/09/22 04:01:46;;;;;;;23.23;19.33;;;8.50;99.90;;;;;;5050993;28;20186;-63
2021/09/22 04:04:11;;;;;;;22.80;18.87;;;8.50;99.90;;;;;;5036661;28;20171;-62
2021/09/22 04:06:38;;;;;;;22.87;19.63;;;8.60;99.90;;;;;;5031307;28;20231;-61
2021/09/22 04:09:04;;;;;;;22.33;19.07;;;8.50;99.90;;;;;;5044005;28;20562;-62
2021/09/22 04:11:30;;;;;;;22.73;19.73;;;8.50;99.90;;;;;;5050901;28;20258;-62
2021/09/22 04:13:56;;;;;;;22.60;20.00;;;8.50;99.90;;;;;;5039159;28;20175;-62
2021/09/22 04:16:22;;;;;;;27.40;20.60;;;8.40;99.90;;;;;;5039804;28;20171;-63
2021/09/22 04:18:48;;;;;;;24.50;20.00;;;8.40;99.90;;;;;;5049718;28;20699;-62
2021/09/22 04:21:13;;;;;;;27.83;20.57;;;8.40;99.90;;;;;;5043617;28;20183;-62
2021/09/22 04:23:39;;;;;;;23.97;20.40;;;8.40;99.90;;;;;;5033660;28;20210;-62
2021/09/22 04:26:05;;;;;;;24.90;20.07;;;8.40;99.90;;;;;;5051049;28;20251;-63
2021/09/22 04:28:30;;;;;;;26.27;21.27;;;8.30;99.90;;;;;;5049547;28;20562;-62
2021/09/22 04:30:56;;;;;;;30.27;21.87;;;8.30;99.90;;;;;;5029475;28;20172;-63
2021/09/22 04:33:22;;;;;;;28.87;23.17;;;8.30;99.90;;;;;;5031077;28;20171;-62
2021/09/22 04:35:47;;;;;;;30.03;22.63;;;8.30;99.90;;;;;;5049963;28;20179;-62
2021/09/22 04:38:13;;;;;;;25.87;19.27;;;8.30;99.90;;;;;;5050908;28;20252;-62
2021/09/22 04:40:39;;;;;;;33.00;22.90;;;8.40;99.90;;;;;;5032803;28;20167;-62
2021/09/22 04:43:04;;;;;;;28.73;22.43;;;8.40;99.90;;;;;;5031032;28;20629;-62
2021/09/22 04:45:30;;;;;;;31.23;23.67;;;8.40;99.90;;;;;;5034249;28;20683;-62
2021/09/22 04:47:59;;;;;;;32.23;24.83;;;8.40;99.90;;;;;;5034095;28;20226;-62
2021/09/22 04:50:26;;;;;;;31.90;26.50;;;8.30;99.90;;;;;;5050515;28;20218;-63
2021/09/22 04:52:51;;;;;;;29.93;22.27;;;8.40;99.90;;;;;;5054498;28;20171;-62
2021/09/22 04:55:17;;;;;;;33.13;23.43;;;8.40;99.90;;;;;;5038485;28;20176;-62
2021/09/22 04:57:43;;;;;;;31.77;24.00;;;8.40;99.90;;;;;;5034096;28;20219;-63
2021/09/22 05:00:09;;;;;;;32.73;24.73;;;8.40;99.90;;;;;;5046671;28;20261;-63
2021/09/22 05:02:35;;;;;;;33.30;26.00;;;8.40;99.90;;;;;;5054221;28;20580;-63
2021/09/22 05:05:01;;;;;;;29.97;22.03;;;8.40;99.90;;;;;;5042808;28;20271;-63
2021/09/22 05:07:26;;;;;;;33.23;24.23;;;8.40;99.90;;;;;;5034073;28;20203;-62
2021/09/22 05:09:53;;;;;;;30.87;24.10;;;8.40;99.90;;;;;;5043013;28;20213;-62
2021/09/22 05:12:19;;;;;;;30.10;24.40;;;8.40;99.90;;;;;;5047022;28;20171;-62
2021/09/22 05:14:44;;;;;;;30.80;22.80;;;8.40;99.90;;;;;;5034066;28;20251;-62
2021/09/22 05:17:10;;;;;;;30.47;22.17;;;8.40;99.90;;;;;;5038828;28;20182;-62
2021/09/22 05:22:04;;;;;;;29.90;25.10;;;8.40;99.90;;;;;;5032305;28;20650;-62
2021/09/22 05:24:30;;;;;;;31.53;24.90;;;8.40;99.90;;;;;;5033823;28;20202;-62
2021/09/22 05:26:55;;;;;;;41.20;26.87;;;8.40;99.90;;;;;;5033450;28;20549;-63
2021/09/22 05:29:21;;;;;;;37.33;27.93;;;8.40;99.90;;;;;;5033490;28;20199;-63
2021/09/22 05:31:47;;;;;;;44.30;35.60;;;8.40;99.90;;;;;;5032808;28;20171;-63
2021/09/22 05:34:12;;;;;;;40.63;31.73;;;8.50;99.90;;;;;;5033652;28;20176;-62
2021/09/22 05:36:38;;;;;;;42.70;29.00;;;8.50;99.90;;;;;;5016006;28;20284;-61
2021/09/22 05:39:04;;;;;;;41.83;31.33;;;8.50;99.90;;;;;;5012356;28;20196;-62
2021/09/22 05:41:30;;;;;;;45.50;29.93;;;8.60;99.90;;;;;;5019499;28;20194;-63
2021/09/22 05:43:55;;;;;;;43.50;31.73;;;8.60;99.90;;;;;;5033112;28;20179;-61
2021/09/22 05:46:21;;;;;;;42.47;30.53;;;8.70;99.90;;;;;;5017504;28;20208;-62
2021/09/22 05:48:46;;;;;;;43.13;31.13;;;8.70;99.90;;;;;;5013243;28;20191;-62
2021/09/22 05:51:12;;;;;;;46.60;30.73;;;8.80;99.90;;;;;;5025595;28;20588;-62
2021/09/22 05:53:40;;;;;;;42.93;31.87;;;8.90;99.90;;;;;;5033130;28;20590;-63
2021/09/22 05:56:05;;;;;;;36.20;31.17;;;8.90;99.90;;;;;;5021367;28;20242;-62
2021/09/22 05:58:31;;;;;;;36.50;28.63;;;9.00;99.90;;;;;;5013062;28;20584;-63
2021/09/22 06:00:58;;;;;;;37.57;28.73;;;9.10;99.90;;;;;;5022011;28;20226;-62
2021/09/22 06:03:24;;;;;;;31.93;27.30;;;9.10;99.90;;;;;;5031160;28;20172;-61
2021/09/22 06:05:50;;;;;;;36.67;28.63;;;9.20;99.90;;;;;;5030735;28;20278;-62
2021/09/22 06:08:15;;;;;;;37.93;27.00;;;9.20;99.90;;;;;;5031352;28;20241;-62
2021/09/22 06:10:43;;;;;;;31.47;26.47;;;9.20;99.90;;;;;;5026094;28;20604;-62
2021/09/22 06:13:09;;;;;;;37.97;27.83;;;9.30;99.90;;;;;;5012563;28;20255;-62
2021/09/22 06:15:34;;;;;;;31.63;26.30;;;9.30;99.90;;;;;;5014138;28;20608;-62
2021/09/22 06:18:00;;;;;;;32.47;25.90;;;9.40;99.90;;;;;;5016195;28;20199;-63
2021/09/22 06:20:25;;;;;;;27.00;23.20;;;9.50;99.90;;;;;;5032339;28;20567;-63
2021/09/22 06:22:51;;;;;;;28.60;23.07;;;9.60;99.90;;;;;;5024366;28;20207;-61
2021/09/22 06:25:17;;;;;;;24.93;20.53;;;9.60;99.90;;;;;;5013023;28;20179;-61
2021/09/22 06:27:43;;;;;;;24.93;22.43;;;9.70;99.90;;;;;;5018305;28;20268;-62
2021/09/22 06:30:10;;;;;;;26.40;21.33;;;9.70;99.90;;;;;;5032185;28;20216;-63
2021/09/22 06:32:36;;;;;;;26.27;22.57;;;9.80;99.90;;;;;;5009713;28;20172;-63
2021/09/22 06:35:03;;;;;;;26.20;20.13;;;9.90;99.90;;;;;;5012625;28;20193;-63
2021/09/22 06:37:29;;;;;;;22.70;19.30;;;10.00;99.90;;;;;;5015871;28;20661;-62
2021/09/22 06:39:55;;;;;;;22.17;19.87;;;10.10;99.90;;;;;;5031930;28;20262;-62
2021/09/22 06:42:20;;;;;;;20.43;18.10;;;10.20;99.90;;;;;;5029398;28;20176;-62
2021/09/22 06:44:46;;;;;;;20.63;18.50;;;10.30;99.90;;;;;;5012311;28;20687;-63
2021/09/22 06:47:11;;;;;;;26.33;19.37;;;10.30;99.90;;;;;;5012435;28;20210;-62
2021/09/22 06:49:37;;;;;;;22.60;19.60;;;10.30;99.90;;;;;;5031558;28;20199;-62
2021/09/22 06:52:03;;;;;;;23.87;19.17;;;10.40;99.90;;;;;;5031952;28;20285;-62
2021/09/22 06:54:29;;;;;;;25.33;19.07;;;10.50;99.90;;;;;;5030396;28;20183;-63
2021/09/22 06:56:54;;;;;;;23.37;19.07;;;10.50;99.90;;;;;;5013719;28;20195;-63
2021/09/22 06:59:20;;;;;;;19.83;17.93;;;10.60;99.90;;;;;;5011882;28;20195;-63
2021/09/22 07:01:46;;;;;;;20.07;17.83;;;10.70;99.90;;;;;;5026584;28;20258;-63
2021/09/22 07:04:11;;;;;;;23.10;16.80;;;10.80;99.90;;;;;;5031584;28;20175;-62
2021/09/22 07:06:37;;;;;;;18.70;16.90;;;10.90;99.90;;;;;;5017765;28;20211;-62
2021/09/22 07:09:03;;;;;;;19.57;17.23;;;11.10;99.90;;;;;;5025967;28;20202;-63
2021/09/22 07:11:29;;;;;;;20.63;15.47;;;11.40;99.90;;;;;;5023447;28;20254;-63
2021/09/22 07:13:54;;;;;;;17.50;15.60;;;11.70;99.90;;;;;;5031348;28;20266;-63
2021/09/22 07:16:20;;;;;;;19.07;16.87;;;12.00;99.90;;;;;;5021648;28;20303;-63
2021/09/22 07:18:46;;;;;;;19.83;16.50;;;12.30;99.90;;;;;;5011710;28;20608;-63
2021/09/22 07:21:14;;;;;;;17.93;16.13;;;12.50;99.90;;;;;;5016226;28;20653;-63
2021/09/22 07:23:40;;;;;;;19.63;16.07;;;12.80;99.90;;;;;;5012703;28;20664;-62
2021/09/22 07:26:07;;;;;;;19.23;16.30;;;13.10;99.90;;;;;;5027581;28;20206;-63
2021/09/22 07:28:33;;;;;;;22.53;15.90;;;13.40;99.90;;;;;;5031432;28;20187;-62
2021/09/22 07:30:59;;;;;;;21.07;16.53;;;13.70;99.90;;;;;;5031209;28;20178;-63
2021/09/22 07:33:25;;;;;;;20.50;16.43;;;13.80;99.90;;;;;;5031559;28;20699;-62
2021/09/22 07:35:50;;;;;;;17.80;15.40;;;14.20;99.90;;;;;;5030035;28;20175;-62
2021/09/22 07:38:17;;;;;;;21.60;16.33;;;14.50;99.90;;;;;;5031549;28;20191;-63
2021/09/22 07:40:43;;;;;;;21.17;16.07;;;15.00;99.90;;;;;;5030967;28;20250;-63
2021/09/22 07:43:09;;;;;;;27.13;16.73;;;15.30;99.90;;;;;;5030298;28;20175;-63
2021/09/22 07:45:35;;;;;;;20.10;15.20;;;15.70;99.90;;;;;;5030163;28;20164;-61
2021/09/22 07:48:01;;;;;;;22.07;16.03;;;16.00;99.90;;;;;;5029732;28;20206;-62
2021/09/22 07:50:27;;;;;;;19.90;14.63;;;16.00;99.90;;;;;;5031090;28;20318;-61
2021/09/22 07:52:53;;;;;;;24.17;16.07;;;16.10;99.90;;;;;;5031275;28;20250;-63
2021/09/22 07:55:18;;;;;;;19.27;15.83;;;16.20;99.90;;;;;;5031244;28;20167;-63
2021/09/22 07:57:44;;;;;;;16.90;15.03;;;16.30;99.90;;;;;;5031168;28;20639;-63
2021/09/22 08:00:11;;;;;;;18.03;14.87;;;16.30;99.90;;;;;;5029382;28;20179;-63
2021/09/22 08:02:37;;;;;;;19.00;14.90;;;16.40;99.90;;;;;;5031017;28;20278;-61
2021/09/22 08:05:03;;;;;;;21.93;15.63;;;16.40;99.90;;;;;;5031205;28;20673;-61
2021/09/22 08:07:29;;;;;;;17.70;15.23;;;16.50;99.90;;;;;;5031106;28;20249;-63
2021/09/22 08:09:55;;;;;;;22.93;16.47;;;16.60;99.90;;;;;;5045826;28;20175;-62
2021/09/22 08:12:20;;;;;;;21.90;15.50;;;16.80;99.90;;;;;;5031003;28;20214;-61
2021/09/22 08:14:46;;;;;;;18.67;15.27;;;17.10;99.90;;;;;;5030966;28;20164;-62
2021/09/22 08:17:14;;;;;;;19.37;14.80;;;17.30;99.90;;;;;;5031102;28;20171;-62
2021/09/22 08:19:41;;;;;;;19.60;15.67;;;17.70;99.90;;;;;;5030074;28;20210;-63
2021/09/22 08:22:07;;;;;;;17.87;14.87;;;18.10;99.90;;;;;;5034908;28;20543;-63
2021/09/22 08:24:33;;;;;;;19.67;15.77;;;18.60;99.90;;;;;;5035024;28;20176;-63
2021/09/22 08:26:59;;;;;;;21.87;15.83;;;18.80;99.90;;;;;;5034642;28;20306;-63
2021/09/22 08:29:25;;;;;;;22.90;16.40;;;18.80;99.90;;;;;;5034587;28;20282;-63
2021/09/22 08:31:51;;;;;;;27.63;17.20;;;18.80;99.90;;;;;;5034422;28;20871;-62
2021/09/22 08:34:17;;;;;;;20.40;16.43;;;18.80;99.90;;;;;;5034795;28;20171;-63
2021/09/22 08:36:46;;;;;;;25.63;17.00;;;19.10;99.90;;;;;;5034480;28;20588;-63
2021/09/22 08:39:13;;;;;;;23.37;15.93;;;19.30;99.90;;;;;;5034496;28;20270;-63
2021/09/22 08:41:39;;;;;;;20.95;16.23;;;19.50;99.90;;;;;;5033356;28;20225;-63
2021/09/22 08:44:05;;;;;;;23.07;18.80;;;19.40;99.90;;;;;;5034371;28;20301;-63
2021/09/22 08:46:35;;;;;;;24.27;18.47;;;19.30;99.90;;;;;;5034439;28;20191;-63
2021/09/22 08:49:02;;;;;;;26.50;18.60;;;18.90;99.90;;;;;;5033071;28;20196;-63
2021/09/22 08:51:28;;;;;;;20.43;18.20;;;19.00;99.90;;;;;;5034338;28;20172;-63
2021/09/22 08:53:54;;;;;;;22.70;17.80;;;19.40;99.90;;;;;;5034309;28;20179;-63
2021/09/22 08:56:19;;;;;;;21.43;18.67;;;19.70;99.90;;;;;;5034377;28;20179;-64
2021/09/22 08:58:45;;;;;;;22.50;17.67;;;19.90;99.90;;;;;;5032820;28;20286;-63
2021/09/22 09:01:16;;;;;;;24.52;18.48;;;20.10;99.90;;;;;;5034099;28;20240;-63
2021/09/22 09:03:42;;;;;;;18.65;16.70;;;20.40;99.90;;;;;;5034192;28;20705;-63
2021/09/22 09:06:34;;;;;;;20.02;17.73;;;20.60;99.90;;;;;;5034747;28;20207;-64
2021/09/22 09:09:03;;;;;;;22.35;18.33;;;20.50;99.90;;;;;;5031471;28;20203;-64
2021/09/22 09:11:34;;;;;;;25.88;19.52;;;20.40;99.90;;;;;;5033985;28;20176;-64
2021/09/22 09:14:03;;;;;;;22.98;18.33;;;20.10;99.90;;;;;;5033725;28;20168;-63
2021/09/22 09:16:36;;;;;;;21.67;19.13;;;20.20;99.90;;;;;;5034005;28;20249;-64
2021/09/22 09:19:02;;;;;;;22.40;19.25;;;20.30;99.90;;;;;;5033712;28;20203;-64
2021/09/22 09:21:28;;;;;;;20.50;17.83;;;20.40;99.90;;;;;;5033812;28;20357;-63
2021/09/22 09:23:57;;;;;;;23.52;18.17;;;20.80;99.90;;;;;;5033559;28;20668;-64
2021/09/22 09:26:25;;;;;;;20.00;17.55;;;21.30;99.90;;;;;;5033758;28;20210;-63
2021/09/22 09:28:54;;;;;;;24.63;18.60;;;21.60;99.90;;;;;;5033485;28;20191;-63
2021/09/22 09:31:21;;;;;;;21.88;17.40;;;21.70;99.90;;;;;;5021355;28;20182;-63
2021/09/22 09:33:52;;;;;;;24.13;19.00;;;21.90;99.90;;;;;;5031812;28;20545;-63
2021/09/22 09:36:33;;;;;;;24.05;19.17;;;21.80;99.90;;;;;;5013850;28;20556;-64
2021/09/22 09:39:11;;;;;;;24.00;18.63;;;21.70;99.90;;;;;;5013673;28;20233;-63
2021/09/22 09:41:48;;;;;;;20.95;18.70;;;21.60;99.90;;;;;;5012634;28;20198;-64
2021/09/22 09:44:17;;;;;;;25.40;20.05;;;22.10;99.90;;;;;;5013946;28;20227;-63
2021/09/22 09:46:44;;;;;;;23.25;18.42;;;22.30;99.90;;;;;;5017862;28;20203;-63
2021/09/22 09:49:11;;;;;;;20.80;18.40;;;22.50;99.90;;;;;;5013306;28;20195;-63
2021/09/22 09:51:58;;;;;;;22.77;19.48;;;22.80;99.90;;;;;;5017899;28;20263;-64
2021/09/22 09:54:26;;;;;;;20.35;18.15;;;23.20;99.90;;;;;;5032989;28;20626;-64
2021/09/22 09:57:07;;;;;;;22.27;19.65;;;23.50;99.90;;;;;;5019321;28;20208;-64
2021/09/22 09:59:43;;;;;;;21.95;19.08;;;23.90;99.90;;;;;;5013046;28;20250;-64
2021/09/22 10:02:28;;;;;;;23.77;18.52;;;24.70;99.90;;;;;;5028008;28;20183;-64
2021/09/22 10:04:56;;;;;;;19.98;17.40;;;25.20;99.90;;;;;;5032898;28;20186;-64
2021/09/22 10:07:22;;;;;;;27.08;18.30;;;25.70;99.90;;;;;;5016207;28;20204;-64
2021/09/22 10:09:49;;;;;;;21.90;17.83;;;26.00;99.90;;;;;;5012736;28;20215;-64
2021/09/22 10:12:16;;;;;;;19.25;17.15;;;26.20;99.90;;;;;;5027808;28;20207;-64
2021/09/22 10:14:44;;;;;;;21.17;18.33;;;26.10;99.90;;;;;;5032710;28;20176;-64
2021/09/22 10:17:11;;;;;;;20.40;18.45;;;26.10;99.90;;;;;;5031216;28;20548;-64
2021/09/22 10:19:37;;;;;;;21.42;17.00;;;26.40;99.90;;;;;;5032204;28;20692;-64
2021/09/22 10:22:03;;;;;;;18.95;16.77;;;26.60;99.90;;;;;;5018325;28;20272;-64
2021/09/22 10:24:29;;;;;;;19.23;17.13;;;26.20;99.90;;;;;;5013106;28;20176;-64
2021/09/22 10:26:55;;;;;;;18.40;16.20;;;26.10;99.90;;;;;;5024859;28;20272;-64
2021/09/22 10:29:29;;;;;;;20.40;16.35;;;26.20;99.90;;;;;;5032382;28;20231;-64
2021/09/22 10:31:56;;;;;;;17.08;14.05;;;26.30;99.90;;;;;;5020524;28;20183;-64
2021/09/22 10:34:29;;;;;;;16.00;14.25;;;26.60;99.90;;;;;;5012856;28;20180;-64
2021/09/22 10:36:56;;;;;;;17.63;15.77;;;26.80;99.90;;;;;;5012766;28;20184;-64
2021/09/22 10:39:42;;;;;;;15.95;14.30;;;27.20;99.90;;;;;;5018125;28;20250;-63
2021/09/22 10:42:31;;;;;;;14.93;13.43;;;27.30;99.90;;;;;;5032142;28;20178;-64
2021/09/22 10:45:20;;;;;;;16.10;14.23;;;27.30;99.90;;;;;;5022212;28;20188;-63
2021/09/22 10:47:46;;;;;;;16.50;13.95;;;27.30;99.90;;;;;;5012360;28;20287;-63
2021/09/22 10:50:33;;;;;;;16.80;15.05;;;27.40;99.90;;;;;;5023694;28;20253;-64
2021/09/22 10:52:58;;;;;;;19.88;17.55;;;27.30;99.90;;;;;;5047514;28;20183;-64
2021/09/22 10:55:24;;;;;;;19.80;17.50;;;27.00;99.90;;;;;;5019483;28;20176;-64
2021/09/22 10:57:50;;;;;;;21.17;17.98;;;27.00;99.90;;;;;;5012323;28;20196;-64
2021/09/22 11:00:21;;;;;;;19.70;17.63;;;26.60;99.90;;;;;;5022655;28;20175;-63
2021/09/22 11:02:53;;;;;;;20.83;16.13;;;26.60;99.90;;;;;;5031945;28;20182;-63
2021/09/22 11:05:27;;;;;;;17.65;15.75;;;26.50;99.90;;;;;;5030201;28;20187;-63
2021/09/22 11:07:53;;;;;;;17.52;15.60;;;26.50;99.90;;;;;;5031664;28;20732;-63
2021/09/22 11:10:44;;;;;;;17.17;14.77;;;27.00;99.90;;;;;;5019133;28;20226;-63
2021/09/22 11:13:19;;;;;;;20.98;15.75;;;26.80;99.90;;;;;;5024052;28;20207;-63
2021/09/22 11:15:53;;;;;;;17.60;15.90;;;26.80;99.90;;;;;;5031698;28;20166;-63
2021/09/22 11:18:20;;;;;;;17.63;15.32;;;27.00;99.90;;;;;;5017341;28;20208;-63
2021/09/22 11:21:01;;;;;;;18.60;16.48;;;27.00;99.90;;;;;;5041892;22;20232;-64
2021/09/22 11:23:28;;;;;;;17.05;15.45;;;27.00;99.90;;;;;;5071048;28;20182;-64
2021/09/22 11:26:07;;;;;;;18.02;16.33;;;27.00;99.90;;;;;;5071362;28;20541;-65
2021/09/22 11:28:34;;;;;;;18.60;16.70;;;26.80;99.90;;;;;;5058132;28;20198;-64
2021/09/22 11:31:00;;;;;;;19.90;16.90;;;26.70;99.90;;;;;;5042365;28;20535;-64
2021/09/22 11:33:27;;;;;;;19.15;16.00;;;26.50;99.90;;;;;;5043069;28;20186;-64
2021/09/22 11:35:53;;;;;;;22.45;18.02;;;26.20;99.90;;;;;;5051232;28;20175;-64
2021/09/22 11:38:19;;;;;;;18.50;16.73;;;26.40;99.90;;;;;;5039454;28;20179;-64
2021/09/22 11:40:47;;;;;;;19.25;16.98;;;26.10;99.90;;;;;;5031126;28;20187;-64
2021/09/22 11:43:19;;;;;;;18.52;16.33;;;26.40;99.90;;;;;;5041422;28;20220;-64
2021/09/22 11:45:51;;;;;;;16.63;14.90;;;26.50;99.90;;;;;;5051082;28;20170;-64
2021/09/22 11:48:28;;;;;;;18.40;15.73;;;26.50;99.90;;;;;;5040960;28;20182;-65
2021/09/22 11:50:54;;;;;;;15.32;13.80;;;27.00;99.90;;;;;;5030961;28;20183;-65
2021/09/22 11:53:25;;;;;;;19.85;13.27;;;27.00;99.90;;;;;;5040891;28;20175;-65
2021/09/22 11:55:52;;;;;;;14.90;13.40;;;26.80;99.90;;;;;;5056823;28;20193;-64
2021/09/22 11:58:23;;;;;;;18.88;15.98;;;26.50;99.90;;;;;;5056261;28;20200;-64
2021/09/22 12:00:51;;;;;;;18.52;13.60;;;26.20;99.90;;;;;;5057410;28;20221;-65
2021/09/22 12:03:21;;;;;;;15.23;12.15;;;26.40;99.90;;;;;;5048242;28;20678;-64
2021/09/22 12:05:47;;;;;;;16.85;13.55;;;26.00;99.90;;;;;;5038082;28;20187;-64
2021/09/22 12:08:12;;;;;;;18.73;14.60;;;25.80;99.90;;;;;;5045280;28;20206;-64
2021/09/22 12:10:43;;;;;;;19.77;15.30;;;25.50;99.90;;;;;;5057427;28;20667;-65
2021/09/22 12:13:09;;;;;;;18.35;16.25;;;25.40;99.90;;;;;;5050791;28;20233;-64
2021/09/22 12:15:35;;;;;;;18.75;14.30;;;25.30;99.90;;;;;;5037830;28;20167;-65
2021/09/22 12:18:02;;;;;;;18.25;14.77;;;25.60;99.90;;;;;;5042444;28;20179;-64
2021/09/22 12:20:29;;;;;;;16.95;15.20;;;25.90;99.90;;;;;;5057480;28;20213;-64
2021/09/22 12:23:07;;;;;;;16.50;14.43;;;26.30;99.90;;;;;;5053158;28;20261;-65
2021/09/22 12:25:34;;;;;;;18.25;16.35;;;26.40;99.90;;;;;;5037643;28;20246;-65
2021/09/22 12:28:01;;;;;;;20.38;15.82;;;26.50;99.90;;;;;;5042107;28;20213;-65
2021/09/22 12:30:39;;;;;;;16.70;14.02;;;26.30;99.90;;;;;;5057302;28;20560;-65
2021/09/22 12:33:08;;;;;;;15.68;14.07;;;26.60;99.90;;;;;;5052783;28;20211;-64